sensor_id;sensor_type;location;lat;lon;timestamp;pressure;altitude;pressure_sealevel;temperature;humidity
1652;BME280;823;49.028;8.454;2022-12-11T00:03:27;99937.34;;;2.92;60.69
1652;BME280;823;49.028;8.454;2022-12-11T00:08:27;99941.53;;;2.99;60.74
1652;BME280;823;49.028;8.454;2022-12-11T00:13:28;99938.09;;;3.03;60.66
1652;BME280;823;49.028;8.454;2022-12-11T00:18:29;99947.41;;;3.12;60.85
1652;BME280;823;49.028;8.454;2022-12-11T00:23:30;99951.59;;;3.17;60.82
1652;BME280;823;49.028;8.454;2022-12-11T00:28:30;99941.31;;;3.23;60.84
1652;BME280;823;49.028;8.454;2022-12-11T00:33:30;99940.47;;;3.24;60.80
1652;BME280;823;49.028;8.454;2022-12-11T00:38:31;99931.16;;;3.17;60.79
1652;BME280;823;49.028;8.454;2022-12-11T00:43:31;99935.31;;;3.26;60.94
1652;BME280;823;49.028;8.454;2022-12-11T00:48:32;99935.31;;;3.26;60.60
1652;BME280;823;49.028;8.454;2022-12-11T00:53:32;99941.28;;;3.27;60.65
1652;BME280;823;49.028;8.454;2022-12-11T00:58:32;99935.28;;;3.29;60.68
1652;BME280;823;49.028;8.454;2022-12-11T01:03:33;99945.75;;;3.08;61.27
1652;BME280;823;49.028;8.454;2022-12-11T01:08:33;99939.88;;;2.95;61.25
1652;BME280;823;49.028;8.454;2022-12-11T01:13:33;99949.31;;;2.86;61.17
1652;BME280;823;49.028;8.454;2022-12-11T01:18:34;99947.66;;;2.84;61.06
1652;BME280;823;49.028;8.454;2022-12-11T01:23:34;99950.03;;;3.04;60.75
1652;BME280;823;49.028;8.454;2022-12-11T01:28:35;99963.72;;;2.92;60.36
1652;BME280;823;49.028;8.454;2022-12-11T01:33:36;99962.91;;;2.92;60.45
1652;BME280;823;49.028;8.454;2022-12-11T01:38:36;99966.47;;;2.72;61.13
1652;BME280;823;49.028;8.454;2022-12-11T01:49:16;99970.78;;;2.64;60.44
1652;BME280;823;49.028;8.454;2022-12-11T01:54:19;99971.53;;;2.75;60.12
1652;BME280;823;49.028;8.454;2022-12-11T01:59:23;99968.28;;;2.54;60.31
1652;BME280;823;49.028;8.454;2022-12-11T02:04:27;99987.03;;;2.52;60.26
1652;BME280;823;49.028;8.454;2022-12-11T02:09:31;99987.91;;;2.46;60.54
1652;BME280;823;49.028;8.454;2022-12-11T02:14:48;99989.66;;;2.43;60.73
1652;BME280;823;49.028;8.454;2022-12-11T02:20:21;99990.53;;;2.37;61.15
1652;BME280;823;49.028;8.454;2022-12-11T02:30:28;99988.78;;;2.42;60.32
1652;BME280;823;49.028;8.454;2022-12-11T02:35:32;99980.34;;;2.35;60.17
1652;BME280;823;49.028;8.454;2022-12-11T02:40:38;99982.06;;;2.26;60.22
1652;BME280;823;49.028;8.454;2022-12-11T02:45:41;99980.41;;;2.20;60.21
1652;BME280;823;49.028;8.454;2022-12-11T02:50:45;99965.16;;;2.08;60.41
1652;BME280;823;49.028;8.454;2022-12-11T02:55:49;99973.69;;;2.00;61.38
1652;BME280;823;49.028;8.454;2022-12-11T03:00:51;99962.53;;;2.20;60.36
1652;BME280;823;49.028;8.454;2022-12-11T03:05:51;99965.94;;;2.22;60.36
1652;BME280;823;49.028;8.454;2022-12-11T03:10:52;99967.72;;;2.06;60.73
1652;BME280;823;49.028;8.454;2022-12-11T03:16:11;99981.28;;;2.13;60.79
1652;BME280;823;49.028;8.454;2022-12-11T03:21:26;99983.88;;;2.08;60.75
1652;BME280;823;49.028;8.454;2022-12-11T03:26:31;99978.84;;;1.94;61.50
1652;BME280;823;49.028;8.454;2022-12-11T03:31:38;99978.75;;;2.17;60.66
1652;BME280;823;49.028;8.454;2022-12-11T03:36:42;99972.78;;;2.17;60.82
1652;BME280;823;49.028;8.454;2022-12-11T03:41:44;99980.47;;;2.04;61.24
1652;BME280;823;49.028;8.454;2022-12-11T03:46:47;99977.91;;;2.06;61.00
1652;BME280;823;49.028;8.454;2022-12-11T03:51:51;99977.97;;;2.00;61.46
1652;BME280;823;49.028;8.454;2022-12-11T03:56:55;99972.00;;;1.98;61.49
1652;BME280;823;49.028;8.454;2022-12-11T04:01:56;99970.25;;;2.08;61.09
1652;BME280;823;49.028;8.454;2022-12-11T04:06:57;99972.81;;;2.06;61.06
1652;BME280;823;49.028;8.454;2022-12-11T04:11:57;99983.84;;;2.11;61.28
1652;BME280;823;49.028;8.454;2022-12-11T04:16:59;99976.25;;;2.02;61.37
1652;BME280;823;49.028;8.454;2022-12-11T04:21:59;99973.59;;;2.22;61.28
1652;BME280;823;49.028;8.454;2022-12-11T04:27:32;99959.97;;;2.25;61.15
1652;BME280;823;49.028;8.454;2022-12-11T04:32:48;99956.63;;;2.18;61.19
1652;BME280;823;49.028;8.454;2022-12-11T04:37:49;99958.38;;;2.07;61.50
1652;BME280;823;49.028;8.454;2022-12-11T04:42:50;99967.59;;;2.31;61.01
1652;BME280;823;49.028;8.454;2022-12-11T04:47:50;99954.09;;;2.13;61.06
1652;BME280;823;49.028;8.454;2022-12-11T04:52:53;99955.72;;;2.25;61.02
1652;BME280;823;49.028;8.454;2022-12-11T04:57:54;99956.59;;;2.21;61.28
1652;BME280;823;49.028;8.454;2022-12-11T05:02:54;99946.34;;;2.30;60.76
1652;BME280;823;49.028;8.454;2022-12-11T05:07:55;99940.47;;;2.13;61.23
1652;BME280;823;49.028;8.454;2022-12-11T05:12:55;99934.53;;;2.08;61.28
1652;BME280;823;49.028;8.454;2022-12-11T05:17:55;99945.63;;;2.07;60.91
1652;BME280;823;49.028;8.454;2022-12-11T05:22:56;99944.75;;;2.04;61.24
1652;BME280;823;49.028;8.454;2022-12-11T05:27:56;99937.97;;;2.07;60.78
1652;BME280;823;49.028;8.454;2022-12-11T05:32:56;99937.16;;;2.00;60.95
1652;BME280;823;49.028;8.454;2022-12-11T05:37:57;99926.91;;;2.09;60.81
1652;BME280;823;49.028;8.454;2022-12-11T05:42:59;99927.72;;;2.17;60.68
1652;BME280;823;49.028;8.454;2022-12-11T05:47:59;99934.47;;;2.23;60.70
1652;BME280;823;49.028;8.454;2022-12-11T05:52:59;99931.94;;;2.23;60.84
1652;BME280;823;49.028;8.454;2022-12-11T05:58:00;99922.53;;;2.25;60.78
1652;BME280;823;49.028;8.454;2022-12-11T06:03:00;99915.81;;;2.16;60.72
1652;BME280;823;49.028;8.454;2022-12-11T06:08:01;99914.88;;;2.25;60.42
1652;BME280;823;49.028;8.454;2022-12-11T06:13:02;99913.09;;;2.41;60.09
1652;BME280;823;49.028;8.454;2022-12-11T06:18:02;99901.22;;;2.34;59.96
1652;BME280;823;49.028;8.454;2022-12-11T06:23:02;99902.78;;;2.53;59.73
1652;BME280;823;49.028;8.454;2022-12-11T06:28:03;99907.91;;;2.49;59.91
1652;BME280;823;49.028;8.454;2022-12-11T06:33:03;99900.41;;;2.29;60.34
1652;BME280;823;49.028;8.454;2022-12-11T06:38:04;99899.53;;;2.34;60.15
1652;BME280;823;49.028;8.454;2022-12-11T06:43:04;99894.28;;;2.51;59.22
1652;BME280;823;49.028;8.454;2022-12-11T06:48:05;99897.72;;;2.47;59.64
1652;BME280;823;49.028;8.454;2022-12-11T06:53:05;99900.31;;;2.38;59.95
1652;BME280;823;49.028;8.454;2022-12-11T06:58:06;99895.28;;;2.32;59.87
1652;BME280;823;49.028;8.454;2022-12-11T07:03:08;99902.16;;;2.22;60.38
1652;BME280;823;49.028;8.454;2022-12-11T07:08:09;99907.19;;;2.28;59.83
1652;BME280;823;49.028;8.454;2022-12-11T07:13:09;99910.72;;;2.12;60.65
1652;BME280;823;49.028;8.454;2022-12-11T07:18:11;99917.66;;;1.91;61.25
1652;BME280;823;49.028;8.454;2022-12-11T07:23:11;99925.22;;;2.00;60.94
1652;BME280;823;49.028;8.454;2022-12-11T07:28:12;99923.53;;;2.04;61.00
1652;BME280;823;49.028;8.454;2022-12-11T07:33:12;99920.09;;;2.08;60.55
1652;BME280;823;49.028;8.454;2022-12-11T07:38:12;99924.25;;;2.25;60.21
1652;BME280;823;49.028;8.454;2022-12-11T07:43:13;99927.72;;;2.17;60.85
1652;BME280;823;49.028;8.454;2022-12-11T07:48:13;99928.44;;;2.35;60.60
1652;BME280;823;49.028;8.454;2022-12-11T07:53:13;99936.00;;;2.47;60.09
1652;BME280;823;49.028;8.454;2022-12-11T07:58:14;99930.25;;;2.20;61.14
1652;BME280;823;49.028;8.454;2022-12-11T08:03:14;99931.84;;;2.37;60.50
1652;BME280;823;49.028;8.454;2022-12-11T08:08:15;99941.88;;;2.62;60.10
1652;BME280;823;49.028;8.454;2022-12-11T08:13:15;99942.63;;;2.70;59.70
1652;BME280;823;49.028;8.454;2022-12-11T08:18:16;99934.09;;;2.76;59.44
1652;BME280;823;49.028;8.454;2022-12-11T08:23:16;99937.41;;;2.85;59.50
1652;BME280;823;49.028;8.454;2022-12-11T08:28:16;99945.13;;;2.79;59.75
1652;BME280;823;49.028;8.454;2022-12-11T08:33:17;99934.09;;;2.77;59.25
1652;BME280;823;49.028;8.454;2022-12-11T08:38:17;99934.13;;;2.69;59.33
1652;BME280;823;49.028;8.454;2022-12-11T08:43:17;99935.81;;;2.73;59.46
1652;BME280;823;49.028;8.454;2022-12-11T08:48:17;99926.31;;;2.86;59.05
1652;BME280;823;49.028;8.454;2022-12-11T08:53:18;99926.31;;;2.86;59.25
1652;BME280;823;49.028;8.454;2022-12-11T08:58:18;99925.53;;;2.78;59.40
1652;BME280;823;49.028;8.454;2022-12-11T09:03:18;99915.84;;;3.13;58.57
1652;BME280;823;49.028;8.454;2022-12-11T09:08:19;99908.88;;;3.29;58.42
1652;BME280;823;49.028;8.454;2022-12-11T09:13:19;99908.16;;;3.19;58.73
1652;BME280;823;49.028;8.454;2022-12-11T09:18:20;99903.94;;;3.10;58.37
1652;BME280;823;49.028;8.454;2022-12-11T09:23:20;99896.22;;;3.18;58.27
1652;BME280;823;49.028;8.454;2022-12-11T09:28:21;99909.25;;;2.93;58.52
1652;BME280;823;49.028;8.454;2022-12-11T09:33:22;99904.78;;;3.14;58.27
1652;BME280;823;49.028;8.454;2022-12-11T09:38:22;99910.88;;;2.99;58.60
1652;BME280;823;49.028;8.454;2022-12-11T09:43:42;99910.63;;;3.23;58.29
1652;BME280;823;49.028;8.454;2022-12-11T09:48:47;99900.38;;;3.30;58.19
1652;BME280;823;49.028;8.454;2022-12-11T09:53:48;99895.97;;;3.41;57.84
1652;BME280;823;49.028;8.454;2022-12-11T09:59:04;99896.97;;;3.26;58.25
1652;BME280;823;49.028;8.454;2022-12-11T10:04:33;99897.72;;;3.36;58.20
1652;BME280;823;49.028;8.454;2022-12-11T10:09:51;99881.31;;;3.55;57.60
1652;BME280;823;49.028;8.454;2022-12-11T10:25:35;99862.59;;;3.53;57.31
1652;BME280;823;49.028;8.454;2022-12-11T10:30:38;99859.25;;;3.47;57.92
1652;BME280;823;49.028;8.454;2022-12-11T10:35:44;99855.41;;;3.80;57.00
1652;BME280;823;49.028;8.454;2022-12-11T10:40:54;99845.81;;;3.96;56.88
1652;BME280;823;49.028;8.454;2022-12-11T10:45:55;99846.59;;;4.00;56.26
1652;BME280;823;49.028;8.454;2022-12-11T10:51:13;99838.56;;;3.64;56.47
1652;BME280;823;49.028;8.454;2022-12-11T10:56:14;99828.09;;;3.82;55.68
1652;BME280;823;49.028;8.454;2022-12-11T11:01:17;99830.50;;;3.93;55.67
1652;BME280;823;49.028;8.454;2022-12-11T11:06:20;99832.97;;;3.99;55.81
1652;BME280;823;49.028;8.454;2022-12-11T11:11:31;99824.56;;;3.91;55.99
1652;BME280;823;49.028;8.454;2022-12-11T11:16:35;99823.13;;;3.73;55.99
1652;BME280;823;49.028;8.454;2022-12-11T11:21:48;99826.19;;;3.97;55.61
1652;BME280;823;49.028;8.454;2022-12-11T11:26:49;99814.19;;;3.99;56.11
1652;BME280;823;49.028;8.454;2022-12-11T11:31:50;99819.53;;;3.83;56.18
1652;BME280;823;49.028;8.454;2022-12-11T11:36:55;99824.47;;;3.97;55.76
1652;BME280;823;49.028;8.454;2022-12-11T11:42:23;99812.72;;;3.85;56.41
1652;BME280;823;49.028;8.454;2022-12-11T11:47:33;99818.84;;;3.73;56.41
1652;BME280;823;49.028;8.454;2022-12-11T11:52:45;99810.25;;;3.78;56.30
1652;BME280;823;49.028;8.454;2022-12-11T11:58:00;99804.47;;;3.65;56.65
1652;BME280;823;49.028;8.454;2022-12-11T12:03:08;99811.06;;;3.81;56.05
1652;BME280;823;49.028;8.454;2022-12-11T12:44:27;99790.22;;;4.06;56.07
1652;BME280;823;49.028;8.454;2022-12-11T12:49:40;99786.06;;;3.97;56.05
1652;BME280;823;49.028;8.454;2022-12-11T12:54:43;99768.94;;;4.02;55.71
1652;BME280;823;49.028;8.454;2022-12-11T13:00:05;99766.31;;;4.07;55.75
1652;BME280;823;49.028;8.454;2022-12-11T13:05:20;99762.97;;;4.03;55.56
1652;BME280;823;49.028;8.454;2022-12-11T13:10:35;99768.13;;;3.99;55.33
1652;BME280;823;49.028;8.454;2022-12-11T13:15:40;99763.78;;;4.05;55.48
1652;BME280;823;49.028;8.454;2022-12-11T13:20:47;99769.56;;;4.18;55.08
1652;BME280;823;49.028;8.454;2022-12-11T13:25:54;99772.38;;;4.01;55.52
1652;BME280;823;49.028;8.454;2022-12-11T13:31:03;99764.09;;;3.85;55.52
1652;BME280;823;49.028;8.454;2022-12-11T13:41:17;99779.78;;;4.18;54.83
1652;BME280;823;49.028;8.454;2022-12-11T13:46:23;99789.72;;;4.37;54.82
1652;BME280;823;49.028;8.454;2022-12-11T13:51:27;99797.50;;;4.29;54.82
1652;BME280;823;49.028;8.454;2022-12-11T13:56:28;99793.09;;;4.37;54.79
1652;BME280;823;49.028;8.454;2022-12-11T14:01:31;99797.22;;;4.48;54.71
1652;BME280;823;49.028;8.454;2022-12-11T14:06:33;99785.53;;;4.31;54.74
1652;BME280;823;49.028;8.454;2022-12-11T14:11:37;99793.03;;;4.42;53.94
1652;BME280;823;49.028;8.454;2022-12-11T14:16:39;99804.38;;;4.27;53.69
1652;BME280;823;49.028;8.454;2022-12-11T14:21:39;99799.22;;;4.29;54.12
1652;BME280;823;49.028;8.454;2022-12-11T14:26:49;99811.28;;;4.22;54.28
1652;BME280;823;49.028;8.454;2022-12-11T14:31:49;99817.09;;;4.32;53.58
1652;BME280;823;49.028;8.454;2022-12-11T14:36:50;99818.66;;;4.42;53.68
1652;BME280;823;49.028;8.454;2022-12-11T14:42:10;99821.56;;;4.19;53.72
1652;BME280;823;49.028;8.454;2022-12-11T14:47:15;99819.88;;;4.18;53.43
1652;BME280;823;49.028;8.454;2022-12-11T14:52:24;99834.28;;;4.26;53.61
1652;BME280;823;49.028;8.454;2022-12-11T14:57:28;99832.38;;;4.38;53.49
1652;BME280;823;49.028;8.454;2022-12-11T15:02:33;99832.53;;;4.27;53.96
1652;BME280;823;49.028;8.454;2022-12-11T15:07:35;99831.53;;;4.36;53.46
1652;BME280;823;49.028;8.454;2022-12-11T15:12:43;99827.25;;;4.38;53.33
1652;BME280;823;49.028;8.454;2022-12-11T15:17:45;99831.84;;;4.17;53.76
1652;BME280;823;49.028;8.454;2022-12-11T15:22:46;99836.97;;;4.17;53.79
1652;BME280;823;49.028;8.454;2022-12-11T15:27:50;99838.78;;;4.09;53.68
1652;BME280;823;49.028;8.454;2022-12-11T15:38:01;99848.81;;;4.23;54.17
1652;BME280;823;49.028;8.454;2022-12-11T15:43:02;99848.72;;;4.31;53.89
1652;BME280;823;49.028;8.454;2022-12-11T15:48:02;99854.75;;;4.25;54.23
1652;BME280;823;49.028;8.454;2022-12-11T15:53:03;99852.22;;;4.23;54.37
1652;BME280;823;49.028;8.454;2022-12-11T15:58:13;99852.06;;;4.33;54.17
1652;BME280;823;49.028;8.454;2022-12-11T16:03:17;99864.13;;;4.26;54.06
1652;BME280;823;49.028;8.454;2022-12-11T16:08:20;99852.19;;;4.25;54.13
1652;BME280;823;49.028;8.454;2022-12-11T16:13:21;99857.31;;;4.26;54.34
1652;BME280;823;49.028;8.454;2022-12-11T16:18:22;99848.13;;;4.13;54.80
1652;BME280;823;49.028;8.454;2022-12-11T16:23:22;99850.03;;;3.99;55.22
1652;BME280;823;49.028;8.454;2022-12-11T16:28:23;99851.47;;;4.18;54.60
1652;BME280;823;49.028;8.454;2022-12-11T16:33:23;99846.56;;;4.04;55.11
1652;BME280;823;49.028;8.454;2022-12-11T16:38:23;99848.00;;;4.19;55.09
1652;BME280;823;49.028;8.454;2022-12-11T16:43:24;99838.69;;;4.17;55.15
1652;BME280;823;49.028;8.454;2022-12-11T16:48:24;99842.38;;;3.97;55.54
1652;BME280;823;49.028;8.454;2022-12-11T16:53:24;99836.19;;;4.12;55.14
1652;BME280;823;49.028;8.454;2022-12-11T16:58:25;99843.84;;;4.12;55.02
1652;BME280;823;49.028;8.454;2022-12-11T17:03:25;99841.31;;;4.12;54.69
1652;BME280;823;49.028;8.454;2022-12-11T17:08:25;99833.97;;;3.90;55.42
1652;BME280;823;49.028;8.454;2022-12-11T17:13:26;99832.09;;;3.99;55.10
1652;BME280;823;49.028;8.454;2022-12-11T17:18:26;99826.06;;;4.03;55.10
1652;BME280;823;49.028;8.454;2022-12-11T17:23:26;99829.53;;;4.02;55.08
1652;BME280;823;49.028;8.454;2022-12-11T17:28:27;99826.22;;;3.94;55.45
1652;BME280;823;49.028;8.454;2022-12-11T17:33:28;99828.06;;;3.85;55.33
1652;BME280;823;49.028;8.454;2022-12-11T17:38:28;99827.81;;;4.01;55.18
1652;BME280;823;49.028;8.454;2022-12-11T17:43:29;99828.69;;;4.00;55.25
1652;BME280;823;49.028;8.454;2022-12-11T17:48:30;99818.47;;;3.98;55.30
1652;BME280;823;49.028;8.454;2022-12-11T17:53:30;99813.50;;;3.89;55.25
1652;BME280;823;49.028;8.454;2022-12-11T17:58:32;99812.75;;;3.82;55.44
1652;BME280;823;49.028;8.454;2022-12-11T18:03:32;99811.19;;;3.72;55.63
1652;BME280;823;49.028;8.454;2022-12-11T18:08:34;99817.25;;;3.65;55.48
1652;BME280;823;49.028;8.454;2022-12-11T18:13:34;99816.50;;;3.58;56.04
1652;BME280;823;49.028;8.454;2022-12-11T18:18:35;99831.91;;;3.53;55.82
1652;BME280;823;49.028;8.454;2022-12-11T18:23:35;99826.84;;;3.47;56.29
1652;BME280;823;49.028;8.454;2022-12-11T18:28:35;99821.03;;;3.37;56.46
1652;BME280;823;49.028;8.454;2022-12-11T18:33:37;99816.81;;;3.32;56.33
1652;BME280;823;49.028;8.454;2022-12-11T18:38:38;99813.53;;;3.23;56.55
1652;BME280;823;49.028;8.454;2022-12-11T18:43:39;99819.53;;;3.19;56.77
1652;BME280;823;49.028;8.454;2022-12-11T18:48:42;99812.78;;;3.14;56.78
1652;BME280;823;49.028;8.454;2022-12-11T18:53:43;99822.22;;;3.09;56.88
1652;BME280;823;49.028;8.454;2022-12-11T18:58:44;99815.44;;;3.04;56.94
1652;BME280;823;49.028;8.454;2022-12-11T19:03:45;99830.91;;;2.95;57.38
1652;BME280;823;49.028;8.454;2022-12-11T19:08:46;99828.38;;;2.89;57.59
1652;BME280;823;49.028;8.454;2022-12-11T19:13:47;99831.88;;;2.82;57.62
1652;BME280;823;49.028;8.454;2022-12-11T19:18:48;99831.97;;;2.71;57.66
1652;BME280;823;49.028;8.454;2022-12-11T19:23:48;99826.06;;;2.66;57.81
1652;BME280;823;49.028;8.454;2022-12-11T19:28:50;99829.56;;;2.55;58.19
1652;BME280;823;49.028;8.454;2022-12-11T19:33:50;99827.09;;;2.46;58.30
1652;BME280;823;49.028;8.454;2022-12-11T19:38:52;99835.63;;;2.42;58.81
1652;BME280;823;49.028;8.454;2022-12-11T19:43:53;99842.41;;;2.46;59.08
1652;BME280;823;49.028;8.454;2022-12-11T19:48:56;99835.50;;;2.56;59.15
1652;BME280;823;49.028;8.454;2022-12-11T19:53:57;99835.41;;;2.68;59.55
1652;BME280;823;49.028;8.454;2022-12-11T19:58:57;99838.72;;;2.80;59.21
1652;BME280;823;49.028;8.454;2022-12-11T20:04:02;99842.00;;;2.91;59.30
1652;BME280;823;49.028;8.454;2022-12-11T20:09:05;99846.13;;;3.03;59.52
1652;BME280;823;49.028;8.454;2022-12-11T20:14:05;99845.19;;;3.12;59.32
1652;BME280;823;49.028;8.454;2022-12-11T20:19:06;99850.16;;;3.22;59.09
1652;BME280;823;49.028;8.454;2022-12-11T20:24:08;99859.47;;;3.30;59.01
1652;BME280;823;49.028;8.454;2022-12-11T20:29:08;99859.38;;;3.36;58.63
1652;BME280;823;49.028;8.454;2022-12-11T20:34:11;99855.94;;;3.40;58.82
1652;BME280;823;49.028;8.454;2022-12-11T20:39:11;99860.97;;;3.45;58.42
1652;BME280;823;49.028;8.454;2022-12-11T20:44:12;99862.66;;;3.47;58.53
1652;BME280;823;49.028;8.454;2022-12-11T20:49:12;99866.06;;;3.49;58.36
1652;BME280;823;49.028;8.454;2022-12-11T20:54:12;99862.63;;;3.52;58.08
1652;BME280;823;49.028;8.454;2022-12-11T20:59:13;99861.63;;;3.62;57.97
1652;BME280;823;49.028;8.454;2022-12-11T21:04:14;99853.13;;;3.60;57.39
1652;BME280;823;49.028;8.454;2022-12-11T21:09:15;99862.63;;;3.50;58.20
1652;BME280;823;49.028;8.454;2022-12-11T21:14:19;99865.91;;;3.60;57.89
1652;BME280;823;49.028;8.454;2022-12-11T21:19:19;99864.25;;;3.57;57.81
1652;BME280;823;49.028;8.454;2022-12-11T21:24:25;99864.97;;;3.67;57.48
1652;BME280;823;49.028;8.454;2022-12-11T21:29:26;99865.06;;;3.60;57.65
1652;BME280;823;49.028;8.454;2022-12-11T21:34:28;99872.81;;;3.53;57.48
1652;BME280;823;49.028;8.454;2022-12-11T21:39:28;99866.22;;;3.35;58.00
1652;BME280;823;49.028;8.454;2022-12-11T21:44:29;99870.28;;;3.52;57.79
1652;BME280;823;49.028;8.454;2022-12-11T21:49:29;99871.94;;;3.53;57.55
1652;BME280;823;49.028;8.454;2022-12-11T21:54:29;99882.16;;;3.56;57.51
1652;BME280;823;49.028;8.454;2022-12-11T21:59:30;99879.66;;;3.51;57.50
1652;BME280;823;49.028;8.454;2022-12-11T22:04:30;99878.78;;;3.52;57.50
1652;BME280;823;49.028;8.454;2022-12-11T22:09:31;99881.38;;;3.51;57.51
1652;BME280;823;49.028;8.454;2022-12-11T22:14:31;99888.16;;;3.53;57.71
1652;BME280;823;49.028;8.454;2022-12-11T22:19:31;99881.25;;;3.58;57.11
1652;BME280;823;49.028;8.454;2022-12-11T22:24:31;99882.13;;;3.59;57.43
1652;BME280;823;49.028;8.454;2022-12-11T22:29:32;99884.69;;;3.57;57.36
1652;BME280;823;49.028;8.454;2022-12-11T22:34:32;99882.28;;;3.47;57.32
1652;BME280;823;49.028;8.454;2022-12-11T22:39:32;99877.19;;;3.45;57.45
1652;BME280;823;49.028;8.454;2022-12-11T22:44:33;99885.78;;;3.38;57.58
1652;BME280;823;49.028;8.454;2022-12-11T22:49:34;99894.25;;;3.41;57.53
1652;BME280;823;49.028;8.454;2022-12-11T22:54:39;99884.91;;;3.39;57.58
1652;BME280;823;49.028;8.454;2022-12-11T22:59:40;99882.25;;;3.48;57.39
1652;BME280;823;49.028;8.454;2022-12-11T23:04:40;99885.63;;;3.52;56.97
1652;BME280;823;49.028;8.454;2022-12-11T23:09:40;99889.84;;;3.56;57.01
1652;BME280;823;49.028;8.454;2022-12-11T23:14:41;99883.97;;;3.48;57.21
1652;BME280;823;49.028;8.454;2022-12-11T23:19:41;99881.38;;;3.49;56.88
1652;BME280;823;49.028;8.454;2022-12-11T23:24:41;99886.38;;;3.58;56.40
1652;BME280;823;49.028;8.454;2022-12-11T23:29:42;99886.38;;;3.58;56.06
1652;BME280;823;49.028;8.454;2022-12-11T23:34:42;99894.78;;;3.67;56.03
1652;BME280;823;49.028;8.454;2022-12-11T23:39:42;99886.34;;;3.63;56.37
1652;BME280;823;49.028;8.454;2022-12-11T23:44:43;99892.41;;;3.53;56.54
1652;BME280;823;49.028;8.454;2022-12-11T23:49:43;99890.84;;;3.43;56.74
1652;BME280;823;49.028;8.454;2022-12-11T23:54:43;99892.44;;;3.51;55.72
1652;BME280;823;49.028;8.454;2022-12-11T23:59:44;99899.38;;;3.41;55.55
